createdAt,value
2018-02-18T00:00:29.235Z,88.05
2018-02-18T00:01:31.728Z,88.03
2018-02-18T00:02:34.195Z,87.44
2018-02-18T00:03:36.668Z,87.65
2018-02-18T00:04:39.155Z,88.00
2018-02-18T00:05:41.678Z,88.47
2018-02-18T00:06:44.168Z,88.89
2018-02-18T00:07:46.643Z,89.05
2018-02-18T00:08:49.142Z,89.31
2018-02-18T00:09:51.633Z,89.43
2018-02-18T00:10:54.140Z,89.47
2018-02-18T00:11:56.623Z,89.58
2018-02-18T00:12:59.096Z,89.52
2018-02-18T00:14:02.090Z,89.51
2018-02-18T00:15:09.456Z,89.42
2018-02-18T00:16:11.979Z,89.31
2018-02-18T00:17:14.464Z,89.23
2018-02-18T00:18:16.935Z,89.09
2018-02-18T00:19:19.423Z,88.54
2018-02-18T00:20:21.904Z,87.69
2018-02-18T00:21:24.406Z,87.71
2018-02-18T00:22:26.898Z,87.82
2018-02-18T00:23:29.391Z,87.66
2018-02-18T00:24:31.887Z,87.47
2018-02-18T00:25:34.367Z,87.60
2018-02-18T00:26:36.871Z,87.00
2018-02-18T00:27:39.351Z,86.73
2018-02-18T00:28:41.841Z,86.97
2018-02-18T00:29:44.334Z,86.87
2018-02-18T00:30:46.811Z,86.94
2018-02-18T00:31:49.321Z,86.82
2018-02-18T00:32:51.809Z,86.55
2018-02-18T00:33:54.294Z,86.41
2018-02-18T00:34:56.771Z,85.96
2018-02-18T00:35:59.244Z,86.02
2018-02-18T00:37:01.743Z,86.15
2018-02-18T00:38:04.242Z,86.36
2018-02-18T00:39:06.733Z,86.43
2018-02-18T00:40:09.213Z,86.38
2018-02-18T00:41:11.702Z,86.24
2018-02-18T00:42:14.219Z,86.03
2018-02-18T00:43:16.711Z,86.45
2018-02-18T00:44:19.232Z,85.99
2018-02-18T00:45:21.719Z,86.10
2018-02-18T00:46:24.205Z,86.33
2018-02-18T00:47:26.698Z,86.52
2018-02-18T00:48:29.190Z,86.49
2018-02-18T00:49:31.685Z,86.10
2018-02-18T00:50:34.187Z,85.80
2018-02-18T00:51:36.667Z,85.57
2018-02-18T00:52:39.185Z,85.17
2018-02-18T00:53:41.663Z,85.04
2018-02-18T00:54:44.154Z,84.95
2018-02-18T00:55:46.656Z,85.15
2018-02-18T00:56:49.158Z,85.18
2018-02-18T00:57:51.647Z,85.12
2018-02-18T00:58:54.128Z,85.21
2018-02-18T00:59:56.599Z,85.61
2018-02-18T01:00:59.085Z,85.76
2018-02-18T01:02:01.602Z,85.97
2018-02-18T01:03:04.099Z,85.99
2018-02-18T01:04:06.602Z,85.89
2018-02-18T01:05:09.098Z,85.69
2018-02-18T01:06:11.714Z,84.96
2018-02-18T01:07:14.212Z,84.69
2018-02-18T01:08:16.710Z,84.66
2018-02-18T01:09:19.181Z,84.00
2018-02-18T01:10:21.673Z,83.96
2018-02-18T01:11:24.159Z,83.92
2018-02-18T01:12:26.641Z,83.53
2018-02-18T01:13:29.141Z,83.04
2018-02-18T01:14:31.629Z,82.97
2018-02-18T01:15:34.126Z,82.66
2018-02-18T01:16:36.625Z,82.48
2018-02-18T01:17:39.110Z,81.83
2018-02-18T01:18:41.612Z,81.72
2018-02-18T01:19:44.123Z,80.56
2018-02-18T01:20:46.611Z,80.77
2018-02-18T01:21:49.106Z,80.31
2018-02-18T01:22:51.593Z,80.31
2018-02-18T01:23:54.103Z,80.19
2018-02-18T01:24:56.584Z,80.08
2018-02-18T01:25:59.061Z,80.31
2018-02-18T01:27:01.577Z,80.50
2018-02-18T01:28:04.071Z,80.05
2018-02-18T01:29:06.561Z,79.88
2018-02-18T01:30:09.053Z,79.86
2018-02-18T01:31:11.524Z,79.89
2018-02-18T01:32:14.022Z,80.11
2018-02-18T01:33:16.536Z,80.12
2018-02-18T01:34:19.031Z,80.20
2018-02-18T01:35:21.520Z,80.53
2018-02-18T01:36:24.000Z,80.56
2018-02-18T01:37:26.474Z,80.42
2018-02-18T01:38:28.960Z,80.73
2018-02-18T01:39:31.471Z,80.48
2018-02-18T01:40:33.947Z,80.47
2018-02-18T01:41:36.423Z,80.65
2018-02-18T01:42:38.918Z,80.88
2018-02-18T01:43:41.421Z,80.77
2018-02-18T01:44:43.940Z,80.62
2018-02-18T01:45:46.434Z,80.54
2018-02-18T01:46:48.927Z,80.26
2018-02-18T01:47:51.417Z,80.23
2018-02-18T01:48:53.913Z,80.40
2018-02-18T01:49:56.434Z,80.76
2018-02-18T01:50:58.916Z,80.96
2018-02-18T01:52:01.418Z,80.93
2018-02-18T01:53:03.906Z,80.21
2018-02-18T01:54:06.397Z,80.18
2018-02-18T01:55:08.900Z,80.05
2018-02-18T01:56:11.379Z,80.05
2018-02-18T01:57:13.855Z,80.17
2018-02-18T01:58:16.345Z,79.89
2018-02-18T01:59:18.846Z,79.86
2018-02-18T02:00:21.343Z,79.80
2018-02-18T02:01:23.833Z,80.52
2018-02-18T02:02:26.324Z,80.74
2018-02-18T02:03:28.806Z,80.73
2018-02-18T02:04:31.299Z,80.85
2018-02-18T02:05:33.798Z,81.01
2018-02-18T02:06:36.290Z,80.99
2018-02-18T02:07:38.769Z,81.17
2018-02-18T02:08:41.269Z,81.16
2018-02-18T02:09:43.757Z,81.14
2018-02-18T02:10:46.297Z,81.21
2018-02-18T02:11:48.793Z,81.42
2018-02-18T02:12:51.290Z,81.32
2018-02-18T02:13:53.773Z,81.33
2018-02-18T02:14:56.258Z,81.04
2018-02-18T02:15:58.786Z,80.97
2018-02-18T02:17:01.278Z,80.92
2018-02-18T02:18:03.760Z,80.77
2018-02-18T02:19:06.240Z,80.35
2018-02-18T02:20:08.774Z,80.14
2018-02-18T02:21:11.283Z,80.16
2018-02-18T02:22:13.777Z,79.83
2018-02-18T02:23:16.256Z,79.96
2018-02-18T02:24:18.762Z,80.37
2018-02-18T02:25:21.254Z,80.47
2018-02-18T02:26:23.787Z,79.97
2018-02-18T02:27:26.263Z,79.90
2018-02-18T02:28:28.777Z,79.69
2018-02-18T02:29:31.259Z,79.74
2018-02-18T02:30:33.748Z,79.53
2018-02-18T02:31:36.270Z,79.65
2018-02-18T02:32:38.769Z,79.19
2018-02-18T02:33:41.250Z,78.97
2018-02-18T02:34:43.725Z,78.76
2018-02-18T02:35:46.220Z,79.25
2018-02-18T02:36:48.712Z,79.34
2018-02-18T02:37:51.191Z,78.98
2018-02-18T02:38:53.664Z,79.10
2018-02-18T02:39:56.141Z,79.06
2018-02-18T02:40:58.665Z,79.34
2018-02-18T02:42:01.183Z,78.90
2018-02-18T02:43:03.667Z,78.65
2018-02-18T02:44:06.139Z,79.01
2018-02-18T02:45:08.634Z,79.19
2018-02-18T02:46:11.121Z,79.35
2018-02-18T02:47:13.629Z,79.31
2018-02-18T02:48:16.122Z,79.66
2018-02-18T02:49:19.230Z,79.25
2018-02-18T02:50:21.717Z,79.29
2018-02-18T02:51:24.196Z,79.36
2018-02-18T02:52:27.537Z,79.32
2018-02-18T02:53:30.037Z,79.53
2018-02-18T02:54:32.516Z,79.21
2018-02-18T02:55:34.992Z,79.35
2018-02-18T02:56:37.483Z,79.32
2018-02-18T02:57:39.994Z,79.25
2018-02-18T02:58:42.503Z,79.01
2018-02-18T02:59:45.004Z,78.78
2018-02-18T03:00:47.491Z,78.58
2018-02-18T03:01:49.979Z,78.84
2018-02-18T03:02:52.498Z,78.99
2018-02-18T03:03:54.994Z,78.60
2018-02-18T03:04:57.498Z,78.69
2018-02-18T03:05:59.994Z,79.12
2018-02-18T03:07:02.506Z,78.95
2018-02-18T03:08:05.007Z,79.01
2018-02-18T03:09:07.598Z,79.66
2018-02-18T03:10:10.094Z,79.86
2018-02-18T03:11:12.569Z,80.11
2018-02-18T03:12:15.048Z,79.90
2018-02-18T03:13:17.519Z,80.07
2018-02-18T03:14:20.003Z,79.98
2018-02-18T03:15:22.484Z,80.12
2018-02-18T03:16:24.989Z,80.42
2018-02-18T03:17:27.484Z,80.04
2018-02-18T03:18:30.004Z,79.83
2018-02-18T03:19:32.481Z,79.35
2018-02-18T03:20:34.981Z,79.64
2018-02-18T03:21:37.468Z,79.80
2018-02-18T03:22:39.966Z,80.06
2018-02-18T03:23:42.457Z,80.70
2018-02-18T03:24:44.940Z,80.58
2018-02-18T03:25:47.416Z,80.89
2018-02-18T03:26:49.905Z,81.26
2018-02-18T03:27:52.379Z,81.23
2018-02-18T03:28:54.885Z,81.03
2018-02-18T03:29:57.371Z,80.54
2018-02-18T03:30:59.863Z,80.22
2018-02-18T03:32:02.356Z,80.15
2018-02-18T03:33:04.845Z,79.83
2018-02-18T03:34:07.319Z,80.24
2018-02-18T03:35:09.800Z,80.08
2018-02-18T03:36:12.288Z,79.84
2018-02-18T03:37:14.781Z,80.36
2018-02-18T03:38:17.281Z,80.63
2018-02-18T03:39:19.758Z,80.67
2018-02-18T03:40:22.235Z,80.35
2018-02-18T03:41:24.720Z,80.16
2018-02-18T03:42:27.196Z,80.20
2018-02-18T03:43:29.691Z,80.41
2018-02-18T03:44:32.185Z,80.89
2018-02-18T03:45:34.682Z,81.23
2018-02-18T03:46:37.159Z,81.35
2018-02-18T03:47:39.651Z,81.61
2018-02-18T03:48:42.132Z,81.29
2018-02-18T03:49:44.625Z,81.48
2018-02-18T03:50:47.108Z,81.38
2018-02-18T03:51:49.587Z,81.78
2018-02-18T03:52:52.072Z,81.88
2018-02-18T03:53:54.547Z,81.53
2018-02-18T03:54:57.046Z,81.71
2018-02-18T03:55:59.519Z,82.33
2018-02-18T03:57:02.013Z,82.74
2018-02-18T03:58:04.505Z,82.70
2018-02-18T03:59:06.997Z,82.39
2018-02-18T04:00:09.494Z,82.55
2018-02-18T04:01:11.987Z,82.58
2018-02-18T04:02:14.459Z,82.37
2018-02-18T04:03:16.957Z,82.07
2018-02-18T04:04:19.456Z,82.03
2018-02-18T04:05:21.926Z,81.77
2018-02-18T04:06:24.412Z,82.12
2018-02-18T04:07:26.897Z,82.50
2018-02-18T04:08:29.371Z,82.58
2018-02-18T04:09:31.842Z,82.68
2018-02-18T04:10:34.319Z,82.59
2018-02-18T04:11:36.811Z,82.34
2018-02-18T04:12:39.287Z,82.69
2018-02-18T04:13:42.177Z,83.20
2018-02-18T04:14:44.665Z,83.60
2018-02-18T04:15:47.157Z,83.31
2018-02-18T04:16:49.652Z,82.66
2018-02-18T04:17:52.134Z,82.59
2018-02-18T04:18:54.626Z,82.76
2018-02-18T04:19:57.111Z,82.41
2018-02-18T04:20:59.588Z,82.74
2018-02-18T04:22:02.067Z,82.79
2018-02-18T04:23:04.548Z,82.78
2018-02-18T04:24:07.028Z,82.83
2018-02-18T04:25:09.495Z,82.55
2018-02-18T04:26:11.981Z,82.57
2018-02-18T04:27:14.480Z,82.83
2018-02-18T04:28:16.971Z,82.26
2018-02-18T04:29:19.504Z,82.17
2018-02-18T04:30:21.976Z,82.26
2018-02-18T04:31:24.451Z,82.54
2018-02-18T04:32:26.973Z,82.89
2018-02-18T04:33:29.483Z,82.88
2018-02-18T04:34:31.982Z,83.37
2018-02-18T04:35:34.459Z,84.17
2018-02-18T04:36:36.940Z,84.24
2018-02-18T04:37:39.416Z,83.68
2018-02-18T04:38:41.905Z,83.40
2018-02-18T04:39:44.379Z,83.40
2018-02-18T04:40:46.870Z,84.04
2018-02-18T04:41:49.347Z,83.86
2018-02-18T04:42:51.841Z,83.66
2018-02-18T04:43:54.335Z,84.01
2018-02-18T04:44:56.825Z,84.09
2018-02-18T04:45:59.305Z,84.15
2018-02-18T04:47:01.802Z,83.67
2018-02-18T04:48:04.306Z,84.12
2018-02-18T04:49:06.783Z,84.04
2018-02-18T04:50:09.277Z,83.66
2018-02-18T04:51:11.768Z,83.62
2018-02-18T04:52:14.270Z,84.16
2018-02-18T04:53:16.757Z,84.48
2018-02-18T04:54:19.248Z,84.12
2018-02-18T04:55:21.741Z,84.16
2018-02-18T04:56:24.264Z,84.10
2018-02-18T04:57:26.747Z,84.47
2018-02-18T04:58:29.242Z,84.58
2018-02-18T04:59:31.738Z,84.91
2018-02-18T05:00:34.233Z,84.52
2018-02-18T05:01:36.725Z,84.20
2018-02-18T05:02:39.195Z,83.85
2018-02-18T05:03:41.698Z,84.09
2018-02-18T05:04:44.172Z,83.61
2018-02-18T05:05:46.647Z,83.63
2018-02-18T05:06:49.126Z,83.98
2018-02-18T05:07:51.613Z,84.30
2018-02-18T05:08:54.086Z,84.43
2018-02-18T05:09:56.563Z,84.42
2018-02-18T05:10:59.043Z,84.98
2018-02-18T05:12:01.538Z,85.10
2018-02-18T05:13:04.011Z,85.15
2018-02-18T05:14:06.484Z,85.25
2018-02-18T05:15:08.976Z,85.23
2018-02-18T05:16:11.466Z,84.80
2018-02-18T05:17:13.962Z,85.07
2018-02-18T05:18:16.455Z,85.53
2018-02-18T05:19:18.948Z,85.28
2018-02-18T05:20:21.444Z,85.25
2018-02-18T05:21:23.931Z,85.04
2018-02-18T05:22:26.403Z,85.38
2018-02-18T05:23:28.902Z,84.79
2018-02-18T05:24:31.370Z,84.38
2018-02-18T05:25:33.878Z,84.13
2018-02-18T05:26:36.369Z,84.21
2018-02-18T05:27:38.847Z,84.25
2018-02-18T05:28:41.331Z,84.25
2018-02-18T05:29:43.835Z,84.33
2018-02-18T05:30:46.332Z,84.63
2018-02-18T05:31:48.823Z,84.72
2018-02-18T05:32:51.303Z,84.56
2018-02-18T05:33:53.794Z,84.89
2018-02-18T05:34:56.284Z,85.08
2018-02-18T05:35:58.760Z,84.93
2018-02-18T05:37:01.239Z,84.98
2018-02-18T05:38:03.731Z,84.95
2018-02-18T05:39:06.216Z,85.21
2018-02-18T05:40:08.694Z,84.99
2018-02-18T05:41:11.185Z,84.40
2018-02-18T05:42:13.659Z,84.56
2018-02-18T05:43:16.136Z,83.97
2018-02-18T05:44:18.640Z,83.84
2018-02-18T05:45:21.137Z,84.25
2018-02-18T05:46:23.644Z,84.33
2018-02-18T05:47:26.120Z,84.00
2018-02-18T05:48:28.592Z,84.22
2018-02-18T05:49:31.086Z,84.76
2018-02-18T05:50:33.563Z,84.50
2018-02-18T05:51:36.038Z,84.54
2018-02-18T05:52:38.531Z,84.52
2018-02-18T05:53:41.021Z,84.59
2018-02-18T05:54:43.503Z,84.55
2018-02-18T05:55:45.990Z,84.63
2018-02-18T05:56:48.479Z,84.57
2018-02-18T05:57:50.973Z,84.57
2018-02-18T05:58:53.486Z,84.29
2018-02-18T05:59:55.965Z,84.30
2018-02-18T06:00:58.481Z,84.51
2018-02-18T06:02:00.960Z,84.37
2018-02-18T06:03:03.457Z,84.33
2018-02-18T06:04:05.935Z,84.52
2018-02-18T06:05:08.425Z,84.78
2018-02-18T06:06:10.906Z,84.86
2018-02-18T06:07:13.406Z,84.73
2018-02-18T06:08:15.883Z,84.55
2018-02-18T06:09:18.367Z,84.61
2018-02-18T06:10:20.862Z,84.58
2018-02-18T06:11:23.335Z,84.51
2018-02-18T06:12:25.815Z,84.77
2018-02-18T06:13:28.308Z,84.58
2018-02-18T06:14:30.797Z,84.34
2018-02-18T06:15:33.286Z,84.46
2018-02-18T06:16:35.771Z,84.89
2018-02-18T06:17:38.250Z,84.74
2018-02-18T06:18:40.753Z,84.76
2018-02-18T06:19:43.235Z,85.02
2018-02-18T06:20:45.715Z,84.83
2018-02-18T06:21:48.224Z,84.73
2018-02-18T06:22:50.694Z,84.96
2018-02-18T06:23:53.189Z,85.00
2018-02-18T06:24:55.677Z,85.43
2018-02-18T06:25:58.181Z,85.26
2018-02-18T06:27:00.671Z,85.22
2018-02-18T06:28:03.161Z,85.13
2018-02-18T06:29:05.635Z,84.92
2018-02-18T06:30:08.143Z,84.73
2018-02-18T06:31:10.616Z,84.54
2018-02-18T06:32:13.093Z,84.71
2018-02-18T06:33:15.581Z,85.15
2018-02-18T06:34:18.101Z,84.61
2018-02-18T06:35:20.591Z,83.97
2018-02-18T06:36:23.093Z,83.98
2018-02-18T06:37:25.579Z,84.00
2018-02-18T06:38:28.073Z,84.33
2018-02-18T06:39:30.590Z,84.20
2018-02-18T06:40:33.067Z,84.33
2018-02-18T06:41:35.569Z,83.89
2018-02-18T06:42:38.048Z,84.00
2018-02-18T06:43:40.519Z,84.11
2018-02-18T06:44:43.023Z,84.32
2018-02-18T06:45:45.502Z,84.55
2018-02-18T06:46:48.045Z,84.79
2018-02-18T06:47:50.519Z,84.48
2018-02-18T06:48:52.993Z,84.63
2018-02-18T06:49:55.489Z,84.34
2018-02-18T06:50:57.978Z,84.35
2018-02-18T06:52:00.515Z,84.05
2018-02-18T06:53:03.024Z,84.01
2018-02-18T06:54:05.526Z,84.15
2018-02-18T06:55:08.948Z,84.39
2018-02-18T06:56:11.428Z,84.22
2018-02-18T06:57:13.903Z,83.77
2018-02-18T06:58:16.414Z,83.81
2018-02-18T06:59:18.899Z,83.68
2018-02-18T07:00:21.400Z,83.72
2018-02-18T07:01:23.894Z,83.79
2018-02-18T07:02:26.376Z,84.07
2018-02-18T07:03:28.865Z,84.12
2018-02-18T07:04:31.351Z,84.00
2018-02-18T07:05:33.844Z,84.00
2018-02-18T07:06:36.319Z,83.45
2018-02-18T07:07:38.799Z,83.39
2018-02-18T07:08:41.290Z,83.46
2018-02-18T07:10:45.565Z,83.30
2018-02-18T07:11:48.058Z,82.92
2018-02-18T07:12:50.550Z,82.85
2018-02-18T07:13:53.028Z,82.49
2018-02-18T07:14:55.515Z,82.20
2018-02-18T07:15:58.026Z,82.68
2018-02-18T07:17:00.518Z,82.76
2018-02-18T07:18:03.011Z,82.95
2018-02-18T07:19:05.483Z,82.66
2018-02-18T07:20:07.974Z,82.43
2018-02-18T07:21:10.471Z,82.28
2018-02-18T07:22:12.961Z,82.29
2018-02-18T07:23:15.455Z,82.03
2018-02-18T07:24:18.067Z,81.92
2018-02-18T07:25:20.567Z,82.08
2018-02-18T07:26:23.093Z,82.55
2018-02-18T07:27:25.576Z,82.08
2018-02-18T07:28:28.451Z,82.15
2018-02-18T07:29:30.932Z,81.91
2018-02-18T07:30:33.448Z,81.97
2018-02-18T07:31:35.961Z,81.43
2018-02-18T07:32:38.472Z,81.27
2018-02-18T07:33:40.989Z,80.94
2018-02-18T07:34:43.487Z,81.22
2018-02-18T07:35:45.974Z,80.94
2018-02-18T07:36:48.522Z,80.68
2018-02-18T07:37:51.018Z,80.83
2018-02-18T07:38:53.514Z,80.84
2018-02-18T07:39:56.009Z,80.74
2018-02-18T07:40:58.489Z,80.63
2018-02-18T07:42:00.990Z,80.30
2018-02-18T07:43:03.494Z,80.47
2018-02-18T07:44:05.993Z,80.07
2018-02-18T07:45:08.470Z,79.96
2018-02-18T07:46:10.955Z,79.69
2018-02-18T07:47:13.469Z,79.61
2018-02-18T07:48:15.992Z,79.35
2018-02-18T07:49:18.469Z,79.64
2018-02-18T07:50:20.955Z,79.31
2018-02-18T07:51:23.438Z,79.39
2018-02-18T07:52:26.024Z,79.15
2018-02-18T07:53:28.501Z,78.84
2018-02-18T07:54:30.987Z,78.76
2018-02-18T07:55:33.463Z,78.89
2018-02-18T07:56:35.951Z,78.62
2018-02-18T07:57:38.447Z,77.91
2018-02-18T07:58:41.767Z,77.59
2018-02-18T07:59:44.247Z,76.48
2018-02-18T08:00:46.757Z,75.35
2018-02-18T08:01:49.216Z,73.15
2018-02-18T08:02:51.708Z,71.27
2018-02-18T08:03:54.176Z,68.48
2018-02-18T08:04:56.647Z,66.95
2018-02-18T08:05:59.142Z,65.90
2018-02-18T08:07:01.644Z,65.32
2018-02-18T08:08:04.141Z,63.62
2018-02-18T08:09:06.705Z,62.13
2018-02-18T08:10:09.170Z,62.30
2018-02-18T08:11:11.666Z,61.12
2018-02-18T08:12:14.143Z,58.47
2018-02-18T08:13:16.631Z,58.59
2018-02-18T08:14:19.138Z,58.32
2018-02-18T08:15:21.603Z,58.30
2018-02-18T08:16:24.218Z,57.60
2018-02-18T08:17:26.716Z,58.21
2018-02-18T08:18:29.221Z,58.05
2018-02-18T08:19:31.716Z,59.66
2018-02-18T08:20:34.205Z,59.44
2018-02-18T08:21:36.680Z,59.34
2018-02-18T08:22:39.165Z,59.51
2018-02-18T08:23:41.668Z,58.25
2018-02-18T08:24:44.147Z,57.38
2018-02-18T08:25:46.629Z,57.97
2018-02-18T08:26:49.105Z,56.33
2018-02-18T08:27:51.571Z,55.67
2018-02-18T08:28:54.059Z,54.50
2018-02-18T08:29:56.574Z,52.87
2018-02-18T08:30:59.061Z,51.34
2018-02-18T08:32:01.545Z,50.73
2018-02-18T08:33:04.016Z,48.56
2018-02-18T08:34:06.521Z,48.01
2018-02-18T08:35:09.001Z,48.03
2018-02-18T08:36:11.471Z,48.18
2018-02-18T08:37:13.982Z,48.43
2018-02-18T08:38:16.465Z,47.21
2018-02-18T08:39:18.965Z,49.78
2018-02-18T08:40:21.453Z,49.72
2018-02-18T08:41:23.933Z,49.55
2018-02-18T08:42:26.401Z,47.89
2018-02-18T08:43:28.898Z,45.99
2018-02-18T08:44:31.409Z,46.90
2018-02-18T08:45:33.876Z,46.76
2018-02-18T08:46:36.357Z,45.25
2018-02-18T08:47:38.853Z,43.50
2018-02-18T08:48:41.328Z,43.57
2018-02-18T08:49:43.815Z,45.30
2018-02-18T08:50:46.305Z,44.06
2018-02-18T08:51:48.798Z,44.86
2018-02-18T08:52:51.276Z,45.82
2018-02-18T08:53:53.766Z,44.05
2018-02-18T08:54:56.276Z,44.84
2018-02-18T08:55:58.779Z,45.98
2018-02-18T08:57:01.251Z,43.52
2018-02-18T08:58:03.720Z,47.06
2018-02-18T08:59:06.195Z,47.18
2018-02-18T09:00:08.699Z,45.44
2018-02-18T09:01:11.186Z,45.03
2018-02-18T09:02:13.671Z,44.59
2018-02-18T09:03:16.171Z,46.87
2018-02-18T09:04:18.657Z,49.41
2018-02-18T09:05:21.182Z,50.31
2018-02-18T09:06:23.674Z,46.39
2018-02-18T09:07:26.135Z,44.74
2018-02-18T09:08:28.607Z,43.41
2018-02-18T09:09:31.092Z,43.62
2018-02-18T09:10:33.594Z,44.97
2018-02-18T09:11:36.109Z,45.20
2018-02-18T09:12:38.594Z,49.35
2018-02-18T09:13:41.093Z,46.94
2018-02-18T09:14:43.569Z,45.79
2018-02-18T09:15:46.059Z,45.47
2018-02-18T09:16:48.527Z,46.60
2018-02-18T09:17:50.991Z,46.28
2018-02-18T09:18:53.464Z,48.48
2018-02-18T09:19:55.953Z,46.64
2018-02-18T09:20:58.450Z,45.33
2018-02-18T09:22:00.924Z,48.37
2018-02-18T09:23:03.417Z,48.14
2018-02-18T09:24:05.884Z,49.63
2018-02-18T09:25:08.355Z,50.66
2018-02-18T09:26:10.868Z,49.54
2018-02-18T09:27:13.360Z,50.54
2018-02-18T09:28:15.831Z,47.28
2018-02-18T09:29:18.341Z,48.41
2018-02-18T09:30:20.842Z,46.32
2018-02-18T09:31:23.331Z,47.32
2018-02-18T09:32:25.816Z,50.08
2018-02-18T09:33:28.287Z,50.12
2018-02-18T09:34:30.766Z,49.81
2018-02-18T09:35:33.249Z,49.83
2018-02-18T09:36:35.753Z,50.89
2018-02-18T09:37:38.219Z,52.15
2018-02-18T09:38:40.701Z,54.15
2018-02-18T09:39:43.186Z,53.86
2018-02-18T09:40:45.736Z,52.46
2018-02-18T09:41:48.220Z,51.60
2018-02-18T09:42:50.691Z,51.33
2018-02-18T09:43:53.181Z,48.97
2018-02-18T09:44:55.665Z,48.45
2018-02-18T09:45:58.132Z,46.57
2018-02-18T09:47:00.639Z,49.66
2018-02-18T09:48:03.205Z,49.24
2018-02-18T09:49:05.689Z,48.18
2018-02-18T09:50:08.154Z,47.63
2018-02-18T09:51:10.624Z,47.04
2018-02-18T09:52:13.124Z,46.46
2018-02-18T09:53:15.634Z,45.89
2018-02-18T09:54:18.104Z,45.86
2018-02-18T09:55:20.575Z,48.36
2018-02-18T09:56:23.067Z,48.74
2018-02-18T09:57:25.598Z,48.13
2018-02-18T09:58:28.415Z,49.07
2018-02-18T09:59:30.885Z,49.14
2018-02-18T10:00:33.360Z,47.24
2018-02-18T10:01:35.858Z,46.17
2018-02-18T10:02:38.376Z,44.25
2018-02-18T10:03:40.847Z,44.24
2018-02-18T10:04:43.340Z,43.13
2018-02-18T10:05:45.807Z,44.32
2018-02-18T10:06:48.302Z,42.78
2018-02-18T10:07:50.813Z,46.67
2018-02-18T10:08:53.305Z,46.25
2018-02-18T10:09:55.784Z,44.17
2018-02-18T10:10:58.251Z,45.06
2018-02-18T10:12:00.738Z,44.33
2018-02-18T10:13:03.257Z,42.74
2018-02-18T10:14:05.770Z,41.96
2018-02-18T10:15:08.258Z,44.29
2018-02-18T10:16:10.733Z,43.69
2018-02-18T10:17:13.217Z,42.28
2018-02-18T10:18:15.717Z,44.45
2018-02-18T10:19:18.220Z,41.99
2018-02-18T10:20:20.776Z,44.24
2018-02-18T10:21:23.452Z,42.62
2018-02-18T10:22:25.953Z,41.15
2018-02-18T10:23:28.467Z,40.76
2018-02-18T10:24:30.953Z,41.14
2018-02-18T10:25:33.426Z,39.88
2018-02-18T10:26:35.919Z,39.45
2018-02-18T10:27:38.460Z,39.52
2018-02-18T10:28:41.165Z,40.63
2018-02-18T10:29:43.940Z,39.62
2018-02-18T10:30:46.425Z,37.90
2018-02-18T10:31:48.967Z,38.51
2018-02-18T10:32:51.407Z,38.87
2018-02-18T10:33:53.905Z,40.05
2018-02-18T10:34:56.395Z,39.23
2018-02-18T10:35:58.868Z,38.01
2018-02-18T10:37:01.372Z,40.33
2018-02-18T10:38:04.024Z,41.63
2018-02-18T10:39:06.540Z,40.71
2018-02-18T10:40:09.030Z,38.02
2018-02-18T10:41:11.524Z,36.92
2018-02-18T10:42:14.056Z,39.13
2018-02-18T10:43:16.541Z,38.66
2018-02-18T10:44:19.043Z,39.02
2018-02-18T10:45:21.531Z,38.75
2018-02-18T10:46:24.034Z,36.16
2018-02-18T10:47:26.522Z,36.69
2018-02-18T10:48:28.999Z,36.46
2018-02-18T10:49:31.507Z,36.42
2018-02-18T10:50:33.996Z,35.28
2018-02-18T10:51:36.504Z,35.88
2018-02-18T10:52:39.003Z,37.05
2018-02-18T10:53:41.522Z,37.11
2018-02-18T10:54:44.101Z,36.57
2018-02-18T10:55:46.572Z,35.80
2018-02-18T10:56:49.068Z,34.87
2018-02-18T10:57:51.597Z,34.42
2018-02-18T10:58:54.082Z,35.82
2018-02-18T10:59:56.608Z,35.09
2018-02-18T11:00:59.107Z,34.57
2018-02-18T11:02:01.629Z,34.07
2018-02-18T11:03:04.119Z,33.92
2018-02-18T11:04:06.591Z,34.37
2018-02-18T11:05:09.099Z,36.27
2018-02-18T11:06:11.567Z,36.56
2018-02-18T11:07:14.067Z,36.00
2018-02-18T11:08:16.548Z,36.83
2018-02-18T11:09:19.032Z,36.81
2018-02-18T11:10:21.546Z,37.65
2018-02-18T11:11:24.086Z,37.62
2018-02-18T11:12:26.582Z,38.48
2018-02-18T11:13:29.067Z,39.53
2018-02-18T11:14:31.535Z,39.58
2018-02-18T11:15:34.077Z,39.18
2018-02-18T11:16:36.580Z,38.67
2018-02-18T11:17:39.056Z,39.75
2018-02-18T11:18:41.547Z,38.25
2018-02-18T11:19:44.039Z,36.06
2018-02-18T11:20:46.571Z,35.83
2018-02-18T11:21:49.049Z,34.95
2018-02-18T11:22:51.555Z,34.00
2018-02-18T11:23:54.085Z,35.72
2018-02-18T11:24:56.616Z,34.59
2018-02-18T11:25:59.179Z,35.22
2018-02-18T11:27:01.648Z,35.57
2018-02-18T11:28:04.134Z,33.12
2018-02-18T11:29:06.616Z,33.28
2018-02-18T11:30:09.100Z,35.22
2018-02-18T11:31:11.596Z,33.55
2018-02-18T11:32:16.333Z,31.57
2018-02-18T11:33:18.823Z,30.05
2018-02-18T11:34:21.341Z,31.85
2018-02-18T11:35:23.819Z,32.84
2018-02-18T11:36:26.330Z,30.81
2018-02-18T11:37:28.817Z,29.15
2018-02-18T11:38:31.304Z,30.25
2018-02-18T11:39:33.802Z,29.61
2018-02-18T11:40:36.287Z,31.33
2018-02-18T11:41:41.574Z,30.45
2018-02-18T11:42:44.138Z,30.52
2018-02-18T11:43:46.665Z,30.45
2018-02-18T11:44:49.163Z,30.18
2018-02-18T11:45:51.637Z,30.59
2018-02-18T11:46:54.162Z,30.30
2018-02-18T11:47:56.649Z,33.37
2018-02-18T11:48:59.123Z,32.71
2018-02-18T11:50:01.595Z,31.59
2018-02-18T11:51:04.118Z,30.28
2018-02-18T11:52:06.943Z,28.46
2018-02-18T11:53:09.459Z,27.56
2018-02-18T11:54:11.978Z,29.16
2018-02-18T11:55:14.699Z,28.41
2018-02-18T11:56:17.244Z,26.42
2018-02-18T11:57:19.744Z,28.44
2018-02-18T11:58:22.221Z,29.16
2018-02-18T11:59:24.757Z,28.49
2018-02-18T12:00:27.235Z,30.19
2018-02-18T12:01:29.737Z,28.82
2018-02-18T12:02:32.236Z,27.05
2018-02-18T12:03:34.836Z,24.99
2018-02-18T12:04:37.826Z,24.46
2018-02-18T12:05:40.326Z,25.38
2018-02-18T12:06:42.808Z,25.59
2018-02-18T12:07:45.325Z,26.20
2018-02-18T12:08:47.807Z,27.17
2018-02-18T12:09:50.290Z,29.76
2018-02-18T12:10:52.957Z,30.46
2018-02-18T12:11:55.428Z,32.02
2018-02-18T12:12:57.941Z,34.23
2018-02-18T12:14:00.434Z,33.40
2018-02-18T12:15:02.905Z,33.73
2018-02-18T12:16:05.382Z,34.63
2018-02-18T12:17:07.945Z,33.43
2018-02-18T12:18:10.455Z,30.98
2018-02-18T12:19:12.937Z,30.14
2018-02-18T12:20:15.399Z,29.19
2018-02-18T12:21:17.918Z,30.47
2018-02-18T12:22:20.409Z,31.58
2018-02-18T12:23:22.926Z,30.76
2018-02-18T12:24:25.418Z,30.22
2018-02-18T12:25:27.910Z,31.67
2018-02-18T12:26:30.402Z,31.52
2018-02-18T12:27:32.868Z,30.68
2018-02-18T12:28:35.369Z,29.83
2018-02-18T12:29:37.859Z,29.69
2018-02-18T12:30:40.332Z,28.94
2018-02-18T12:31:42.858Z,27.97
2018-02-18T12:32:45.345Z,26.75
2018-02-18T12:33:47.844Z,29.19
2018-02-18T12:34:50.323Z,29.02
2018-02-18T12:35:52.799Z,28.48
2018-02-18T12:36:55.305Z,29.17
2018-02-18T12:37:58.165Z,29.45
2018-02-18T12:39:00.712Z,28.75
2018-02-18T12:40:03.205Z,26.75
2018-02-18T12:41:05.701Z,27.51
2018-02-18T12:42:08.187Z,26.23
2018-02-18T12:43:10.675Z,26.99
2018-02-18T12:44:13.184Z,25.92
2018-02-18T12:45:15.663Z,28.23
2018-02-18T12:46:18.139Z,27.82
2018-02-18T12:47:20.724Z,28.83
2018-02-18T12:48:23.187Z,27.56
2018-02-18T12:49:25.675Z,27.77
2018-02-18T12:50:28.152Z,27.14
2018-02-18T12:51:30.637Z,27.85
2018-02-18T12:52:33.196Z,28.00
2018-02-18T12:53:35.682Z,27.48
2018-02-18T12:54:38.242Z,27.31
2018-02-18T12:55:40.713Z,27.96
2018-02-18T12:56:43.220Z,28.77
2018-02-18T12:57:45.720Z,30.24
2018-02-18T12:58:48.219Z,28.67
2018-02-18T12:59:50.715Z,29.60
2018-02-18T13:00:53.211Z,29.90
2018-02-18T13:01:55.701Z,30.47
2018-02-18T13:02:58.171Z,30.62
2018-02-18T13:04:00.644Z,32.20
2018-02-18T13:05:03.143Z,33.01
2018-02-18T13:06:05.656Z,33.70
2018-02-18T13:07:08.204Z,32.80
2018-02-18T13:08:10.662Z,33.68
2018-02-18T13:09:13.139Z,32.48
2018-02-18T13:10:15.653Z,32.79
2018-02-18T13:11:18.244Z,31.09
2018-02-18T13:12:20.729Z,28.81
2018-02-18T13:13:23.205Z,29.12
2018-02-18T13:14:25.743Z,29.64
2018-02-18T13:15:28.239Z,28.01
2018-02-18T13:16:30.714Z,25.76
2018-02-18T13:17:33.203Z,24.90
2018-02-18T13:18:35.686Z,25.00
2018-02-18T13:19:38.182Z,25.23
2018-02-18T13:20:40.704Z,25.53
2018-02-18T13:21:43.209Z,23.18
2018-02-18T13:22:45.680Z,23.22
2018-02-18T13:23:48.177Z,21.64
2018-02-18T13:24:50.656Z,22.29
2018-02-18T13:25:53.155Z,24.25